createdAt,value
2022-10-08T00:00:18.792Z,23.37
2022-10-08T00:02:45.560Z,23.35
2022-10-08T00:05:12.272Z,23.64
2022-10-08T00:07:38.911Z,23.75
2022-10-08T00:10:07.595Z,23.72
2022-10-08T00:12:34.308Z,23.66
2022-10-08T00:15:01.238Z,23.83
2022-10-08T00:17:28.160Z,23.62
2022-10-08T00:19:57.793Z,23.92
2022-10-08T00:22:25.095Z,23.59
2022-10-08T00:24:53.403Z,23.45
2022-10-08T00:27:23.787Z,23.26
2022-10-08T00:29:52.047Z,23.28
2022-10-08T00:32:19.802Z,23.20
2022-10-08T00:34:48.189Z,23.43
2022-10-08T00:37:15.347Z,23.69
2022-10-08T00:39:42.156Z,23.63
2022-10-08T00:42:12.931Z,23.47
2022-10-08T00:44:54.836Z,23.59
2022-10-08T00:47:40.678Z,23.76
2022-10-08T00:50:10.142Z,23.64
2022-10-08T00:52:42.384Z,23.33
2022-10-08T00:55:10.056Z,23.23
2022-10-08T00:57:38.636Z,23.37
2022-10-08T01:00:12.263Z,22.85
2022-10-08T01:02:38.970Z,22.85
2022-10-08T01:05:06.385Z,22.66
2022-10-08T01:07:54.992Z,22.65
2022-10-08T01:10:42.133Z,22.43
2022-10-08T01:13:39.337Z,22.56
2022-10-08T01:16:32.561Z,22.61
2022-10-08T01:19:08.152Z,22.92
2022-10-08T01:21:58.509Z,23.11
2022-10-08T01:24:58.381Z,23.08
2022-10-08T01:27:32.453Z,23.10
2022-10-08T01:30:04.408Z,22.85
2022-10-08T01:32:40.319Z,22.64
2022-10-08T01:35:19.429Z,22.76
2022-10-08T01:37:47.448Z,22.40
2022-10-08T01:40:20.215Z,22.64
2022-10-08T01:42:49.401Z,22.70
2022-10-08T01:45:22.740Z,22.03
2022-10-08T01:47:50.987Z,22.31
2022-10-08T01:50:28.109Z,22.40
2022-10-08T01:53:07.169Z,22.07
2022-10-08T01:55:39.934Z,22.08
2022-10-08T01:58:14.590Z,21.97
2022-10-08T02:00:42.169Z,21.86
2022-10-08T02:03:13.259Z,21.58
2022-10-08T02:05:48.088Z,21.80
2022-10-08T02:08:14.799Z,21.88
2022-10-08T02:10:41.502Z,22.12
2022-10-08T02:13:09.293Z,22.21
2022-10-08T02:15:52.851Z,22.14
2022-10-08T02:18:26.040Z,22.29
2022-10-08T02:20:59.880Z,22.50
2022-10-08T02:23:34.727Z,22.51
2022-10-08T02:28:43.483Z,22.45
2022-10-08T02:31:23.214Z,22.63
2022-10-08T02:34:01.105Z,22.47
2022-10-08T02:36:32.450Z,22.53
2022-10-08T02:39:03.918Z,22.22
2022-10-08T02:41:34.414Z,22.31
2022-10-08T02:44:06.479Z,22.21
2022-10-08T02:46:37.606Z,21.85
2022-10-08T02:49:18.137Z,21.91
2022-10-08T02:51:49.637Z,22.13
2022-10-08T02:54:19.921Z,22.22
2022-10-08T02:56:52.583Z,22.04
2022-10-08T02:59:20.727Z,21.74
2022-10-08T03:01:57.473Z,21.77
2022-10-08T03:04:41.525Z,21.92
2022-10-08T03:07:09.553Z,21.72
2022-10-08T03:09:43.356Z,21.52
2022-10-08T03:12:11.800Z,21.57
2022-10-08T03:14:41.942Z,21.89
2022-10-08T03:17:12.613Z,21.73
2022-10-08T03:19:39.387Z,21.40
2022-10-08T03:22:07.531Z,21.50
2022-10-08T03:24:35.565Z,22.13
2022-10-08T03:27:02.446Z,22.22
2022-10-08T03:29:29.056Z,22.56
2022-10-08T03:31:55.598Z,22.67
2022-10-08T03:34:24.834Z,22.39
2022-10-08T03:36:51.538Z,22.56
2022-10-08T03:39:18.117Z,22.15
2022-10-08T03:41:44.641Z,21.97
2022-10-08T03:44:12.357Z,21.73
2022-10-08T03:46:39.073Z,22.49
2022-10-08T03:49:05.658Z,21.93
2022-10-08T03:51:32.351Z,21.93
2022-10-08T03:53:58.899Z,22.37
2022-10-08T03:56:25.497Z,22.14
2022-10-08T03:58:57.518Z,21.78
2022-10-08T04:01:25.637Z,21.89
2022-10-08T04:03:52.620Z,22.28
2022-10-08T04:06:19.486Z,22.84
2022-10-08T04:08:46.090Z,22.83
2022-10-08T04:11:15.971Z,23.06
2022-10-08T04:13:43.692Z,22.90
2022-10-08T04:16:15.664Z,22.72
2022-10-08T04:18:42.904Z,22.98
2022-10-08T04:21:12.377Z,23.21
2022-10-08T04:23:41.010Z,23.15
2022-10-08T04:26:09.043Z,22.62
2022-10-08T04:28:40.449Z,22.79
2022-10-08T04:31:11.490Z,22.78
2022-10-08T04:33:38.174Z,22.71
2022-10-08T04:36:09.586Z,22.82
2022-10-08T04:38:36.209Z,23.12
2022-10-08T04:41:06.555Z,23.15
2022-10-08T04:43:34.850Z,23.15
2022-10-08T04:46:01.751Z,23.15
2022-10-08T04:48:28.347Z,23.39
2022-10-08T04:51:01.913Z,23.92
2022-10-08T04:53:29.251Z,23.64
2022-10-08T04:55:57.158Z,23.52
2022-10-08T04:58:25.722Z,24.15
2022-10-08T05:00:52.295Z,23.81
2022-10-08T05:03:18.836Z,23.90
2022-10-08T05:05:46.392Z,24.07
2022-10-08T05:08:13.002Z,24.29
2022-10-08T05:10:39.701Z,24.54
2022-10-08T05:13:06.300Z,24.51
2022-10-08T05:15:35.506Z,24.36
2022-10-08T05:18:02.062Z,23.72
2022-10-08T05:20:28.595Z,24.22
2022-10-08T05:22:55.150Z,23.46
2022-10-08T05:25:21.705Z,23.53
2022-10-08T05:27:48.780Z,24.15
2022-10-08T05:30:19.729Z,23.90
2022-10-08T05:32:48.726Z,23.87
2022-10-08T05:35:15.819Z,23.99
2022-10-08T05:37:42.358Z,22.88
2022-10-08T05:40:09.318Z,23.11
2022-10-08T05:42:36.106Z,22.82
2022-10-08T05:45:03.725Z,23.03
2022-10-08T05:47:30.542Z,23.49
2022-10-08T05:49:57.089Z,22.96
2022-10-08T05:52:23.666Z,23.47
2022-10-08T05:54:50.217Z,23.85
2022-10-08T05:57:16.729Z,23.71
2022-10-08T05:59:43.273Z,23.75
2022-10-08T06:02:11.313Z,23.45
2022-10-08T06:04:37.867Z,24.03
2022-10-08T06:07:04.879Z,23.63
2022-10-08T06:09:31.447Z,24.24
2022-10-08T06:11:58.460Z,24.00
2022-10-08T06:14:25.269Z,24.37
2022-10-08T06:16:51.798Z,24.24
2022-10-08T06:19:18.412Z,24.50
2022-10-08T06:21:45.043Z,24.74
2022-10-08T06:24:12.581Z,24.77
2022-10-08T06:26:40.982Z,25.22
2022-10-08T06:29:10.868Z,25.03
2022-10-08T06:31:37.489Z,25.13
2022-10-08T06:34:05.067Z,25.08
2022-10-08T06:36:32.807Z,25.44
2022-10-08T06:39:01.886Z,25.17
2022-10-08T06:41:34.782Z,24.25
2022-10-08T06:44:02.954Z,24.39
2022-10-08T06:46:31.284Z,24.53
2022-10-08T06:48:59.154Z,24.77
2022-10-08T06:51:26.094Z,25.07
2022-10-08T06:53:55.088Z,24.83
2022-10-08T06:56:21.674Z,25.07
2022-10-08T06:58:49.423Z,24.50
2022-10-08T07:01:32.627Z,24.56
2022-10-08T07:04:00.681Z,24.68
2022-10-08T07:06:27.604Z,23.70
2022-10-08T07:08:57.271Z,24.12
2022-10-08T07:11:24.458Z,24.47
2022-10-08T07:13:51.174Z,24.64
2022-10-08T07:16:23.238Z,24.99
2022-10-08T07:18:51.482Z,25.65
2022-10-08T07:21:20.132Z,26.46
2022-10-08T07:23:47.183Z,28.16
2022-10-08T07:26:18.555Z,29.06
2022-10-08T07:29:00.783Z,29.69
2022-10-08T07:31:30.219Z,29.53
2022-10-08T07:33:58.617Z,29.09
2022-10-08T07:36:26.477Z,28.44
2022-10-08T07:38:58.130Z,28.44
2022-10-08T07:41:25.014Z,27.32
2022-10-08T07:43:59.481Z,27.14
2022-10-08T07:46:27.478Z,27.19
2022-10-08T07:48:59.105Z,26.48
2022-10-08T07:51:26.646Z,24.80
2022-10-08T07:53:53.301Z,24.74
2022-10-08T07:56:22.078Z,24.55
2022-10-08T07:58:49.650Z,25.69
2022-10-08T08:01:19.747Z,25.74
2022-10-08T08:03:51.722Z,25.66
2022-10-08T08:06:18.253Z,26.17
2022-10-08T08:08:45.815Z,25.35
2022-10-08T08:11:14.940Z,25.51
2022-10-08T08:13:42.319Z,25.29
2022-10-08T08:16:21.165Z,25.08
2022-10-08T08:18:50.327Z,25.84
2022-10-08T08:21:25.403Z,26.55
2022-10-08T08:23:54.635Z,26.93
2022-10-08T08:26:24.521Z,27.09
2022-10-08T08:28:59.774Z,27.60
2022-10-08T08:31:29.850Z,27.49
2022-10-08T08:34:02.662Z,27.55
2022-10-08T08:36:32.917Z,27.39
2022-10-08T08:39:00.483Z,28.54
2022-10-08T08:41:56.051Z,29.01
2022-10-08T08:44:38.537Z,31.25
2022-10-08T08:47:12.428Z,32.47
2022-10-08T08:50:18.965Z,33.51
2022-10-08T08:52:45.932Z,32.89
2022-10-08T08:55:18.428Z,32.87
2022-10-08T08:57:55.324Z,31.34
2022-10-08T09:00:24.216Z,31.43
2022-10-08T09:02:53.957Z,30.71
2022-10-08T09:05:22.156Z,29.33
2022-10-08T09:07:58.847Z,29.19
2022-10-08T09:10:38.078Z,29.04
2022-10-08T09:13:14.705Z,28.53
2022-10-08T09:15:42.662Z,27.99
2022-10-08T09:18:11.695Z,27.55
2022-10-08T09:20:40.478Z,26.91
2022-10-08T09:23:19.963Z,26.64
2022-10-08T09:25:54.506Z,26.83
2022-10-08T09:28:42.933Z,27.39
2022-10-08T09:31:21.143Z,27.19
2022-10-08T09:34:10.721Z,26.89
2022-10-08T09:36:46.632Z,27.02
2022-10-08T09:39:18.246Z,27.24
2022-10-08T09:41:46.902Z,27.12
2022-10-08T09:44:23.457Z,27.42
2022-10-08T09:47:05.006Z,27.04
2022-10-08T09:49:34.367Z,27.31
2022-10-08T09:52:17.119Z,27.78
2022-10-08T09:54:48.786Z,28.29
2022-10-08T09:57:19.285Z,28.99
2022-10-08T09:59:56.374Z,29.23
2022-10-08T10:02:37.056Z,28.53
2022-10-08T10:05:07.020Z,29.03
2022-10-08T10:07:42.662Z,28.99
2022-10-08T10:10:16.365Z,29.33
2022-10-08T10:12:49.081Z,29.02
2022-10-08T10:15:20.062Z,28.94
2022-10-08T10:17:55.690Z,28.44
2022-10-08T10:20:43.130Z,28.72
2022-10-08T10:23:14.942Z,28.36
2022-10-08T10:25:47.637Z,28.87
2022-10-08T10:28:22.916Z,29.44
2022-10-08T10:30:59.555Z,28.37
2022-10-08T10:33:32.464Z,29.22
2022-10-08T10:36:05.553Z,29.18
2022-10-08T10:38:42.785Z,30.17
2022-10-08T10:41:35.576Z,30.81
2022-10-08T10:44:15.569Z,29.96
2022-10-08T10:46:50.829Z,29.50
2022-10-08T10:49:22.681Z,29.30
2022-10-08T10:56:38.759Z,27.48
2022-10-08T10:59:24.198Z,26.84
2022-10-08T11:02:23.981Z,26.96
2022-10-08T11:05:15.011Z,27.30
2022-10-08T11:07:59.514Z,27.59
2022-10-08T11:10:44.168Z,27.03
2022-10-08T11:13:36.558Z,27.36
2022-10-08T11:16:05.925Z,27.53
2022-10-08T11:18:51.252Z,27.49
2022-10-08T11:21:41.865Z,27.19
2022-10-08T11:24:28.762Z,26.50
2022-10-08T11:27:05.169Z,27.67
2022-10-08T11:29:56.307Z,27.96
2022-10-08T11:32:24.330Z,28.59
2022-10-08T11:35:12.798Z,29.02
2022-10-08T11:37:46.880Z,29.76
2022-10-08T11:40:16.602Z,29.87
2022-10-08T11:43:16.852Z,29.71
2022-10-08T11:45:49.782Z,29.17
2022-10-08T11:48:34.539Z,29.90
2022-10-08T11:51:19.287Z,29.50
2022-10-08T11:54:07.053Z,29.76
2022-10-08T11:56:37.672Z,30.40
2022-10-08T11:59:24.541Z,29.80
2022-10-08T12:02:04.247Z,30.12
2022-10-08T12:04:36.283Z,29.24
2022-10-08T12:07:07.602Z,28.85
2022-10-08T12:10:05.261Z,27.60
2022-10-08T12:12:50.338Z,27.10
2022-10-08T12:15:23.279Z,27.91
2022-10-08T12:18:13.471Z,27.59
2022-10-08T12:20:42.375Z,27.57
2022-10-08T12:23:21.195Z,27.76
2022-10-08T12:25:49.300Z,27.95
2022-10-08T12:28:22.089Z,26.77
2022-10-08T12:30:51.258Z,27.28
2022-10-08T12:33:19.338Z,27.39
2022-10-08T12:36:04.586Z,26.87
2022-10-08T12:38:38.578Z,27.04
2022-10-08T12:41:16.825Z,26.86
2022-10-08T12:43:53.070Z,26.63
2022-10-08T12:46:40.160Z,25.64
2022-10-08T12:49:21.601Z,25.48
2022-10-08T12:52:05.653Z,25.52
2022-10-08T12:54:33.453Z,25.76
2022-10-08T12:57:06.817Z,25.57
2022-10-08T12:59:35.231Z,26.00
2022-10-08T13:02:02.095Z,25.79
2022-10-08T13:04:32.395Z,26.37
2022-10-08T13:06:59.054Z,26.91
2022-10-08T13:09:36.654Z,27.05
2022-10-08T13:12:07.872Z,27.22
2022-10-08T13:14:38.513Z,27.63
2022-10-08T13:17:05.404Z,27.61
2022-10-08T13:19:33.545Z,27.48
2022-10-08T13:22:07.892Z,27.84
2022-10-08T13:24:42.869Z,27.37
2022-10-08T13:27:30.607Z,28.22
2022-10-08T13:29:59.611Z,27.85
2022-10-08T13:32:29.627Z,27.72
2022-10-08T13:34:59.365Z,27.89
2022-10-08T13:37:29.993Z,27.32
2022-10-08T13:39:59.971Z,27.66
2022-10-08T13:42:41.369Z,27.32
2022-10-08T13:45:23.642Z,26.89
2022-10-08T13:47:51.508Z,25.90
2022-10-08T13:50:19.289Z,25.36
2022-10-08T13:52:54.578Z,25.25
2022-10-08T13:55:27.208Z,25.13
2022-10-08T13:57:55.363Z,25.87
2022-10-08T14:00:22.939Z,26.07
2022-10-08T14:02:51.555Z,26.84
2022-10-08T14:05:19.058Z,27.07
2022-10-08T14:07:47.633Z,27.90
2022-10-08T14:10:14.537Z,27.63
2022-10-08T14:12:41.504Z,27.70
2022-10-08T14:15:11.576Z,27.73
2022-10-08T14:17:38.585Z,27.71
2022-10-08T14:20:06.008Z,27.54
2022-10-08T14:22:38.765Z,27.70
2022-10-08T14:25:17.539Z,27.46
2022-10-08T14:27:44.462Z,27.59
2022-10-08T14:30:12.897Z,27.43
2022-10-08T14:32:39.721Z,27.84
2022-10-08T14:35:06.677Z,28.21
2022-10-08T14:37:34.439Z,27.82
2022-10-08T14:40:01.904Z,28.11
2022-10-08T14:42:28.434Z,28.53
2022-10-08T14:44:55.015Z,28.05
2022-10-08T14:47:21.587Z,27.93
2022-10-08T14:49:48.531Z,27.85
2022-10-08T14:52:15.038Z,27.55
2022-10-08T14:54:42.744Z,27.79
2022-10-08T14:57:09.795Z,27.53
2022-10-08T14:59:40.067Z,27.76
2022-10-08T15:02:10.284Z,27.75
2022-10-08T15:04:36.913Z,27.96
2022-10-08T15:07:03.497Z,27.45
2022-10-08T15:09:31.545Z,27.85
2022-10-08T15:11:58.365Z,27.92
2022-10-08T15:14:24.949Z,28.21
2022-10-08T15:16:51.591Z,27.87
2022-10-08T15:19:22.705Z,27.39
2022-10-08T15:21:50.923Z,27.23
2022-10-08T15:24:17.574Z,27.60
2022-10-08T15:26:44.185Z,27.49
2022-10-08T15:29:10.883Z,27.53
2022-10-08T15:31:37.530Z,27.48
2022-10-08T15:34:04.110Z,27.59
2022-10-08T15:36:37.066Z,27.69
2022-10-08T15:39:13.336Z,27.55
2022-10-08T15:41:42.469Z,27.49
2022-10-08T15:44:18.198Z,27.31
2022-10-08T15:46:49.828Z,27.21
2022-10-08T15:49:16.888Z,27.08
2022-10-08T15:51:43.459Z,27.32
2022-10-08T15:54:10.549Z,27.50
2022-10-08T15:56:37.445Z,27.43
2022-10-08T15:59:04.514Z,27.39
2022-10-08T16:01:31.937Z,27.46
2022-10-08T16:03:59.887Z,27.92
2022-10-08T16:06:29.421Z,27.88
2022-10-08T16:08:57.800Z,27.77
2022-10-08T16:11:31.148Z,27.52
2022-10-08T16:14:02.161Z,28.00
2022-10-08T16:16:29.524Z,27.70
2022-10-08T16:18:58.212Z,27.63
2022-10-08T16:21:26.317Z,26.91
2022-10-08T16:23:53.027Z,26.32
2022-10-08T16:26:21.371Z,26.43
2022-10-08T16:28:55.207Z,26.60
2022-10-08T16:31:22.725Z,27.02
2022-10-08T16:34:01.384Z,27.18
2022-10-08T16:36:30.757Z,26.93
2022-10-08T16:38:58.126Z,27.03
2022-10-08T16:41:27.962Z,26.87
2022-10-08T16:43:57.437Z,26.70
2022-10-08T16:46:32.374Z,26.72
2022-10-08T16:49:21.286Z,26.85
2022-10-08T16:51:50.766Z,26.90
2022-10-08T16:54:19.093Z,26.78
2022-10-08T16:56:47.260Z,26.72
2022-10-08T16:59:22.417Z,26.49
2022-10-08T17:01:51.248Z,26.59
2022-10-08T17:04:19.009Z,26.63
2022-10-08T17:06:45.922Z,26.83
2022-10-08T17:09:12.751Z,26.87
2022-10-08T17:11:39.960Z,26.80
2022-10-08T17:14:07.678Z,26.69
2022-10-08T17:16:35.848Z,26.56
2022-10-08T17:19:03.862Z,26.42
2022-10-08T17:21:32.033Z,26.25
2022-10-08T17:23:59.749Z,26.06
2022-10-08T17:26:28.195Z,26.03
2022-10-08T17:28:55.409Z,26.20
2022-10-08T17:31:28.963Z,26.39
2022-10-08T17:33:55.863Z,26.40
2022-10-08T17:36:26.516Z,26.33
2022-10-08T17:38:56.034Z,26.14
2022-10-08T17:41:25.726Z,26.21
2022-10-08T17:43:55.722Z,26.18
2022-10-08T17:46:28.815Z,25.98
2022-10-08T17:48:55.829Z,25.90
2022-10-08T17:51:27.893Z,26.08
2022-10-08T17:53:56.832Z,25.84
2022-10-08T17:56:24.718Z,25.51
2022-10-08T17:58:52.138Z,25.61
2022-10-08T18:01:30.773Z,25.65
2022-10-08T18:04:00.844Z,25.60
2022-10-08T18:06:29.096Z,25.69
2022-10-08T18:08:57.917Z,25.67
2022-10-08T18:11:25.954Z,25.72
2022-10-08T18:13:53.062Z,25.60
2022-10-08T18:16:21.016Z,25.65
2022-10-08T18:18:48.536Z,25.25
2022-10-08T18:21:18.024Z,25.32
2022-10-08T18:23:46.555Z,25.17
2022-10-08T18:26:20.638Z,25.28
2022-10-08T18:28:49.752Z,25.05
2022-10-08T18:31:18.186Z,25.22
2022-10-08T18:33:47.011Z,25.19
2022-10-08T18:36:19.215Z,25.01
2022-10-08T18:38:48.772Z,25.14
2022-10-08T18:41:23.415Z,24.96
2022-10-08T18:43:50.405Z,25.03
2022-10-08T18:46:19.321Z,24.62
2022-10-08T18:48:46.827Z,24.76
2022-10-08T18:51:16.924Z,24.63
2022-10-08T18:53:44.602Z,24.50
2022-10-08T18:56:19.914Z,24.50
2022-10-08T18:58:47.064Z,24.83
2022-10-08T19:01:23.085Z,24.69
2022-10-08T19:03:52.453Z,24.78
2022-10-08T19:06:20.833Z,24.84
2022-10-08T19:08:48.569Z,24.81
2022-10-08T19:11:17.922Z,24.67
2022-10-08T19:13:44.912Z,24.63
2022-10-08T19:16:13.734Z,24.23
2022-10-08T19:18:54.961Z,24.28
2022-10-08T19:21:22.858Z,24.08
2022-10-08T19:23:50.104Z,24.13
2022-10-08T19:26:16.818Z,24.10
2022-10-08T19:28:48.454Z,24.06
2022-10-08T19:31:17.711Z,24.06
2022-10-08T19:33:56.463Z,24.29
2022-10-08T19:36:24.934Z,24.15
2022-10-08T19:39:00.503Z,23.99
2022-10-08T19:41:28.016Z,24.02
2022-10-08T19:43:56.251Z,23.73
2022-10-08T19:46:24.131Z,23.72
2022-10-08T19:48:56.200Z,23.75
2022-10-08T19:51:24.237Z,23.85
2022-10-08T19:53:50.986Z,23.89
2022-10-08T19:56:18.179Z,23.43
2022-10-08T19:58:48.635Z,23.79
2022-10-08T20:01:19.608Z,23.90
2022-10-08T20:03:46.918Z,23.98
2022-10-08T20:06:24.093Z,23.93
2022-10-08T20:08:57.692Z,24.03
2022-10-08T20:11:25.623Z,24.04
2022-10-08T20:13:53.305Z,23.74
2022-10-08T20:16:23.490Z,23.63
2022-10-08T20:18:59.324Z,23.80
2022-10-08T20:21:30.341Z,23.90
2022-10-08T20:23:57.218Z,23.87
2022-10-08T20:26:26.486Z,23.70
2022-10-08T20:28:58.359Z,23.52
2022-10-08T20:31:27.768Z,23.35
2022-10-08T20:34:03.220Z,23.60
2022-10-08T20:36:31.181Z,23.66
2022-10-08T20:38:58.151Z,23.69
2022-10-08T20:41:30.404Z,23.67
2022-10-08T20:44:02.764Z,23.42
2022-10-08T20:46:30.482Z,23.36
2022-10-08T20:48:57.770Z,23.22
2022-10-08T20:51:26.075Z,23.06
2022-10-08T20:53:57.993Z,23.46
2022-10-08T20:56:25.399Z,23.45
2022-10-08T20:58:52.436Z,23.21
2022-10-08T21:01:21.493Z,23.17
2022-10-08T21:03:48.102Z,23.22
2022-10-08T21:06:19.849Z,23.39
2022-10-08T21:08:48.590Z,22.93
2022-10-08T21:11:18.135Z,22.90
2022-10-08T21:13:45.795Z,22.55
2022-10-08T21:16:21.635Z,22.83
2022-10-08T21:18:50.615Z,22.71
2022-10-08T21:21:18.017Z,22.13
2022-10-08T21:23:45.985Z,21.96
2022-10-08T21:26:15.056Z,22.29
2022-10-08T21:28:44.054Z,22.38
2022-10-08T21:31:11.523Z,22.69
2022-10-08T21:33:40.122Z,22.71
2022-10-08T21:36:10.732Z,22.71
2022-10-08T21:38:37.712Z,22.41
2022-10-08T21:41:12.055Z,22.42
2022-10-08T21:43:39.963Z,22.49
2022-10-08T21:46:07.920Z,22.43
2022-10-08T21:48:34.685Z,22.58
2022-10-08T21:51:13.750Z,22.41
2022-10-08T21:53:44.446Z,22.23
2022-10-08T21:56:14.185Z,22.22
2022-10-08T21:58:43.551Z,22.19
2022-10-08T22:01:26.268Z,22.52
2022-10-08T22:03:55.069Z,22.71
2022-10-08T22:06:22.268Z,22.86
2022-10-08T22:08:49.076Z,22.95
2022-10-08T22:11:16.423Z,22.95
2022-10-08T22:13:43.016Z,22.94
2022-10-08T22:16:11.720Z,23.00
2022-10-08T22:18:38.546Z,22.90
2022-10-08T22:21:07.699Z,22.96
2022-10-08T22:23:35.485Z,22.99
2022-10-08T22:26:05.742Z,22.79
2022-10-08T22:28:33.200Z,22.71
2022-10-08T22:31:01.905Z,22.40
2022-10-08T22:33:29.833Z,22.16
2022-10-08T22:36:08.082Z,22.43
2022-10-08T22:38:36.917Z,22.38
2022-10-08T22:41:12.167Z,22.44
2022-10-08T22:43:39.933Z,22.39
2022-10-08T22:46:10.332Z,22.32
2022-10-08T22:48:37.574Z,22.32
2022-10-08T22:51:09.281Z,22.38
2022-10-08T22:53:36.025Z,22.18
2022-10-08T22:56:07.789Z,22.23
2022-10-08T22:58:34.953Z,22.23
2022-10-08T23:01:07.178Z,22.25
2022-10-08T23:03:34.946Z,22.15
2022-10-08T23:06:13.535Z,22.15
2022-10-08T23:08:40.906Z,22.38
2022-10-08T23:11:08.904Z,22.34
2022-10-08T23:13:36.003Z,22.41
2022-10-08T23:16:06.351Z,22.28
2022-10-08T23:18:35.333Z,22.24
2022-10-08T23:21:10.069Z,22.19
2022-10-08T23:23:37.271Z,22.19
2022-10-08T23:26:06.147Z,21.98
2022-10-08T23:28:37.104Z,22.11
2022-10-08T23:31:04.715Z,22.14
2022-10-08T23:33:32.074Z,22.12
2022-10-08T23:35:58.704Z,21.93
2022-10-08T23:38:25.241Z,22.07
2022-10-08T23:40:51.920Z,21.92
2022-10-08T23:43:18.582Z,21.81
2022-10-08T23:45:45.164Z,21.81
2022-10-08T23:48:11.975Z,21.87
2022-10-08T23:50:38.820Z,21.78
2022-10-08T23:53:05.600Z,21.75
2022-10-08T23:55:32.439Z,21.76
2022-10-08T23:57:58.945Z,21.72
